sensor_id;sensor_type;location;lat;lon;timestamp;P1;durP1;ratioP1;P2;durP2;ratioP2
85279;SDS011;75687;40.670;21.838;2024-01-30T00:01:28;1.80;;;1.30;;
85279;SDS011;75687;40.670;21.838;2024-01-30T00:03:58;2.70;;;1.90;;
85279;SDS011;75687;40.670;21.838;2024-01-30T00:06:28;3.10;;;1.90;;
85279;SDS011;75687;40.670;21.838;2024-01-30T00:08:59;2.60;;;1.60;;
85279;SDS011;75687;40.670;21.838;2024-01-30T00:11:30;3.20;;;2.00;;
85279;SDS011;75687;40.670;21.838;2024-01-30T00:16:29;3.10;;;1.40;;
85279;SDS011;75687;40.670;21.838;2024-01-30T00:19:00;2.10;;;1.80;;
85279;SDS011;75687;40.670;21.838;2024-01-30T00:21:31;2.50;;;1.60;;
85279;SDS011;75687;40.670;21.838;2024-01-30T00:24:02;4.10;;;2.10;;
85279;SDS011;75687;40.670;21.838;2024-01-30T00:26:33;3.30;;;2.00;;
85279;SDS011;75687;40.670;21.838;2024-01-30T00:29:03;2.70;;;1.70;;
85279;SDS011;75687;40.670;21.838;2024-01-30T00:31:34;2.70;;;1.80;;
85279;SDS011;75687;40.670;21.838;2024-01-30T00:34:07;3.00;;;1.90;;
85279;SDS011;75687;40.670;21.838;2024-01-30T00:36:38;5.50;;;2.60;;
85279;SDS011;75687;40.670;21.838;2024-01-30T00:39:09;3.30;;;2.20;;
85279;SDS011;75687;40.670;21.838;2024-01-30T00:41:39;4.40;;;2.50;;
85279;SDS011;75687;40.670;21.838;2024-01-30T00:44:10;2.10;;;1.60;;
85279;SDS011;75687;40.670;21.838;2024-01-30T00:46:41;3.40;;;3.10;;
85279;SDS011;75687;40.670;21.838;2024-01-30T00:49:12;2.90;;;1.90;;
85279;SDS011;75687;40.670;21.838;2024-01-30T00:51:42;2.80;;;1.90;;
85279;SDS011;75687;40.670;21.838;2024-01-30T00:56:42;4.50;;;2.30;;
85279;SDS011;75687;40.670;21.838;2024-01-30T00:59:14;5.00;;;2.50;;
85279;SDS011;75687;40.670;21.838;2024-01-30T01:01:46;7.00;;;3.20;;
85279;SDS011;75687;40.670;21.838;2024-01-30T01:04:16;8.10;;;4.40;;
85279;SDS011;75687;40.670;21.838;2024-01-30T01:09:16;5.20;;;4.30;;
85279;SDS011;75687;40.670;21.838;2024-01-30T01:11:46;9.00;;;5.10;;
85279;SDS011;75687;40.670;21.838;2024-01-30T01:14:17;11.60;;;5.90;;
85279;SDS011;75687;40.670;21.838;2024-01-30T01:16:47;8.70;;;4.50;;
85279;SDS011;75687;40.670;21.838;2024-01-30T01:19:18;9.80;;;5.10;;
85279;SDS011;75687;40.670;21.838;2024-01-30T01:21:49;10.50;;;5.20;;
85279;SDS011;75687;40.670;21.838;2024-01-30T01:24:19;8.50;;;5.40;;
85279;SDS011;75687;40.670;21.838;2024-01-30T01:29:19;6.10;;;3.90;;
85279;SDS011;75687;40.670;21.838;2024-01-30T01:31:57;6.80;;;4.10;;
85279;SDS011;75687;40.670;21.838;2024-01-30T01:34:27;6.40;;;4.00;;
85279;SDS011;75687;40.670;21.838;2024-01-30T01:36:58;6.40;;;4.10;;
85279;SDS011;75687;40.670;21.838;2024-01-30T01:41:58;5.30;;;3.70;;
85279;SDS011;75687;40.670;21.838;2024-01-30T01:44:28;4.90;;;2.90;;
85279;SDS011;75687;40.670;21.838;2024-01-30T01:46:59;4.30;;;2.70;;
85279;SDS011;75687;40.670;21.838;2024-01-30T01:49:29;3.20;;;2.80;;
85279;SDS011;75687;40.670;21.838;2024-01-30T01:54:29;5.40;;;2.30;;
85279;SDS011;75687;40.670;21.838;2024-01-30T01:56:59;3.70;;;2.50;;
85279;SDS011;75687;40.670;21.838;2024-01-30T01:59:30;3.20;;;2.00;;
85279;SDS011;75687;40.670;21.838;2024-01-30T02:02:01;2.50;;;1.60;;
85279;SDS011;75687;40.670;21.838;2024-01-30T02:04:32;2.50;;;2.10;;
85279;SDS011;75687;40.670;21.838;2024-01-30T02:07:03;2.90;;;2.00;;
85279;SDS011;75687;40.670;21.838;2024-01-30T02:09:34;1.90;;;1.50;;
85279;SDS011;75687;40.670;21.838;2024-01-30T02:12:05;2.50;;;1.50;;
85279;SDS011;75687;40.670;21.838;2024-01-30T02:14:44;3.60;;;1.90;;
85279;SDS011;75687;40.670;21.838;2024-01-30T02:17:15;2.40;;;1.80;;
85279;SDS011;75687;40.670;21.838;2024-01-30T02:19:45;3.10;;;2.80;;
85279;SDS011;75687;40.670;21.838;2024-01-30T02:22:16;2.60;;;1.90;;
85279;SDS011;75687;40.670;21.838;2024-01-30T02:24:47;3.00;;;1.80;;
85279;SDS011;75687;40.670;21.838;2024-01-30T02:27:17;2.20;;;1.50;;
85279;SDS011;75687;40.670;21.838;2024-01-30T02:32:17;2.20;;;1.40;;
85279;SDS011;75687;40.670;21.838;2024-01-30T02:34:48;3.60;;;2.30;;
85279;SDS011;75687;40.670;21.838;2024-01-30T02:37:18;2.50;;;1.70;;
85279;SDS011;75687;40.670;21.838;2024-01-30T02:39:49;4.30;;;2.10;;
85279;SDS011;75687;40.670;21.838;2024-01-30T02:42:19;2.90;;;1.60;;
85279;SDS011;75687;40.670;21.838;2024-01-30T02:44:50;2.90;;;1.50;;
85279;SDS011;75687;40.670;21.838;2024-01-30T02:47:20;1.90;;;1.60;;
85279;SDS011;75687;40.670;21.838;2024-01-30T02:52:23;1.50;;;1.40;;
85279;SDS011;75687;40.670;21.838;2024-01-30T02:54:53;3.00;;;2.70;;
85279;SDS011;75687;40.670;21.838;2024-01-30T02:57:24;3.60;;;2.30;;
85279;SDS011;75687;40.670;21.838;2024-01-30T03:02:24;2.30;;;1.40;;
85279;SDS011;75687;40.670;21.838;2024-01-30T03:04:55;1.60;;;1.10;;
85279;SDS011;75687;40.670;21.838;2024-01-30T03:07:25;2.30;;;2.00;;
85279;SDS011;75687;40.670;21.838;2024-01-30T03:09:56;2.50;;;1.80;;
85279;SDS011;75687;40.670;21.838;2024-01-30T03:12:27;4.60;;;2.50;;
85279;SDS011;75687;40.670;21.838;2024-01-30T03:14:57;5.30;;;2.90;;
85279;SDS011;75687;40.670;21.838;2024-01-30T03:17:28;4.20;;;2.60;;
85279;SDS011;75687;40.670;21.838;2024-01-30T03:19:58;4.60;;;2.30;;
85279;SDS011;75687;40.670;21.838;2024-01-30T03:22:28;4.70;;;2.40;;
85279;SDS011;75687;40.670;21.838;2024-01-30T03:24:59;3.00;;;2.70;;
85279;SDS011;75687;40.670;21.838;2024-01-30T03:27:29;4.10;;;2.60;;
85279;SDS011;75687;40.670;21.838;2024-01-30T03:30:00;4.40;;;2.30;;
85279;SDS011;75687;40.670;21.838;2024-01-30T03:32:31;3.90;;;2.20;;
85279;SDS011;75687;40.670;21.838;2024-01-30T03:35:02;2.70;;;2.10;;
85279;SDS011;75687;40.670;21.838;2024-01-30T03:37:33;4.70;;;2.30;;
85279;SDS011;75687;40.670;21.838;2024-01-30T03:42:34;5.10;;;3.30;;
85279;SDS011;75687;40.670;21.838;2024-01-30T03:47:35;5.30;;;3.00;;
85279;SDS011;75687;40.670;21.838;2024-01-30T03:50:06;6.00;;;2.60;;
85279;SDS011;75687;40.670;21.838;2024-01-30T03:52:37;6.10;;;2.80;;
85279;SDS011;75687;40.670;21.838;2024-01-30T03:55:08;5.10;;;3.40;;
85279;SDS011;75687;40.670;21.838;2024-01-30T03:57:38;4.10;;;2.30;;
85279;SDS011;75687;40.670;21.838;2024-01-30T04:02:41;6.70;;;2.60;;
85279;SDS011;75687;40.670;21.838;2024-01-30T04:05:11;4.20;;;3.00;;
85279;SDS011;75687;40.670;21.838;2024-01-30T04:07:42;3.90;;;2.30;;
85279;SDS011;75687;40.670;21.838;2024-01-30T04:10:13;4.60;;;3.40;;
85279;SDS011;75687;40.670;21.838;2024-01-30T04:12:46;4.20;;;2.20;;
85279;SDS011;75687;40.670;21.838;2024-01-30T04:15:22;3.50;;;2.30;;
85279;SDS011;75687;40.670;21.838;2024-01-30T04:17:52;9.10;;;4.30;;
85279;SDS011;75687;40.670;21.838;2024-01-30T04:22:52;6.70;;;2.90;;
85279;SDS011;75687;40.670;21.838;2024-01-30T04:25:23;7.90;;;4.50;;
85279;SDS011;75687;40.670;21.838;2024-01-30T04:27:56;8.10;;;3.30;;
85279;SDS011;75687;40.670;21.838;2024-01-30T04:32:56;4.90;;;3.20;;
85279;SDS011;75687;40.670;21.838;2024-01-30T04:35:27;4.50;;;4.00;;
85279;SDS011;75687;40.670;21.838;2024-01-30T04:37:57;5.50;;;3.80;;
85279;SDS011;75687;40.670;21.838;2024-01-30T04:42:57;7.30;;;2.70;;
85279;SDS011;75687;40.670;21.838;2024-01-30T04:45:27;7.90;;;2.40;;
85279;SDS011;75687;40.670;21.838;2024-01-30T04:47:58;5.50;;;2.30;;
85279;SDS011;75687;40.670;21.838;2024-01-30T04:52:58;4.80;;;2.50;;
85279;SDS011;75687;40.670;21.838;2024-01-30T04:57:58;6.30;;;2.70;;
85279;SDS011;75687;40.670;21.838;2024-01-30T05:00:29;4.80;;;3.40;;
85279;SDS011;75687;40.670;21.838;2024-01-30T05:03:02;4.70;;;2.50;;
85279;SDS011;75687;40.670;21.838;2024-01-30T05:05:33;5.20;;;2.30;;
85279;SDS011;75687;40.670;21.838;2024-01-30T05:10:33;4.20;;;2.50;;
85279;SDS011;75687;40.670;21.838;2024-01-30T05:13:04;8.80;;;3.10;;
85279;SDS011;75687;40.670;21.838;2024-01-30T05:18:04;3.60;;;2.10;;
85279;SDS011;75687;40.670;21.838;2024-01-30T05:20:35;3.80;;;2.30;;
85279;SDS011;75687;40.670;21.838;2024-01-30T05:23:30;4.00;;;2.10;;
85279;SDS011;75687;40.670;21.838;2024-01-30T05:26:01;4.90;;;2.10;;
85279;SDS011;75687;40.670;21.838;2024-01-30T05:28:31;7.50;;;3.00;;
85279;SDS011;75687;40.670;21.838;2024-01-30T05:31:02;6.30;;;2.70;;
85279;SDS011;75687;40.670;21.838;2024-01-30T05:33:33;4.40;;;2.20;;
85279;SDS011;75687;40.670;21.838;2024-01-30T05:36:04;4.20;;;1.90;;
85279;SDS011;75687;40.670;21.838;2024-01-30T05:38:37;4.70;;;2.70;;
85279;SDS011;75687;40.670;21.838;2024-01-30T05:41:07;2.70;;;2.10;;
85279;SDS011;75687;40.670;21.838;2024-01-30T05:43:38;3.80;;;2.20;;
85279;SDS011;75687;40.670;21.838;2024-01-30T05:46:11;4.90;;;2.80;;
85279;SDS011;75687;40.670;21.838;2024-01-30T05:48:41;6.20;;;3.10;;
85279;SDS011;75687;40.670;21.838;2024-01-30T05:53:41;7.30;;;3.50;;
85279;SDS011;75687;40.670;21.838;2024-01-30T05:56:12;5.20;;;3.10;;
85279;SDS011;75687;40.670;21.838;2024-01-30T05:58:43;4.20;;;2.40;;
85279;SDS011;75687;40.670;21.838;2024-01-30T06:01:14;2.30;;;1.70;;
85279;SDS011;75687;40.670;21.838;2024-01-30T06:03:44;2.80;;;1.90;;
85279;SDS011;75687;40.670;21.838;2024-01-30T06:08:44;3.00;;;1.80;;
85279;SDS011;75687;40.670;21.838;2024-01-30T06:11:15;3.50;;;2.30;;
85279;SDS011;75687;40.670;21.838;2024-01-30T06:16:15;4.90;;;2.30;;
85279;SDS011;75687;40.670;21.838;2024-01-30T06:21:14;2.80;;;2.10;;
85279;SDS011;75687;40.670;21.838;2024-01-30T06:23:45;3.80;;;2.50;;
85279;SDS011;75687;40.670;21.838;2024-01-30T06:26:16;3.30;;;2.40;;
85279;SDS011;75687;40.670;21.838;2024-01-30T06:33:47;3.90;;;2.50;;
85279;SDS011;75687;40.670;21.838;2024-01-30T06:36:18;3.50;;;2.30;;
85279;SDS011;75687;40.670;21.838;2024-01-30T06:41:18;2.50;;;1.50;;
85279;SDS011;75687;40.670;21.838;2024-01-30T06:48:46;2.60;;;1.80;;
85279;SDS011;75687;40.670;21.838;2024-01-30T06:53:47;3.40;;;1.90;;
85279;SDS011;75687;40.670;21.838;2024-01-30T06:58:49;3.60;;;2.30;;
85279;SDS011;75687;40.670;21.838;2024-01-30T07:01:19;4.80;;;3.30;;
85279;SDS011;75687;40.670;21.838;2024-01-30T07:03:51;3.40;;;2.00;;
85279;SDS011;75687;40.670;21.838;2024-01-30T07:06:21;4.30;;;2.40;;
85279;SDS011;75687;40.670;21.838;2024-01-30T07:08:51;4.60;;;2.70;;
85279;SDS011;75687;40.670;21.838;2024-01-30T07:11:22;3.30;;;2.50;;
85279;SDS011;75687;40.670;21.838;2024-01-30T07:13:53;4.00;;;2.40;;
85279;SDS011;75687;40.670;21.838;2024-01-30T07:16:24;5.10;;;2.80;;
85279;SDS011;75687;40.670;21.838;2024-01-30T07:18:54;5.20;;;2.90;;
85279;SDS011;75687;40.670;21.838;2024-01-30T07:21:25;4.70;;;2.80;;
85279;SDS011;75687;40.670;21.838;2024-01-30T07:23:58;4.90;;;2.50;;
85279;SDS011;75687;40.670;21.838;2024-01-30T07:26:29;4.70;;;3.10;;
85279;SDS011;75687;40.670;21.838;2024-01-30T07:29:00;3.10;;;2.60;;
85279;SDS011;75687;40.670;21.838;2024-01-30T07:31:31;3.40;;;2.40;;
85279;SDS011;75687;40.670;21.838;2024-01-30T07:34:02;6.10;;;2.90;;
85279;SDS011;75687;40.670;21.838;2024-01-30T07:36:32;3.80;;;3.40;;
85279;SDS011;75687;40.670;21.838;2024-01-30T07:39:03;5.70;;;3.20;;
85279;SDS011;75687;40.670;21.838;2024-01-30T07:41:33;4.00;;;2.80;;
85279;SDS011;75687;40.670;21.838;2024-01-30T07:44:04;4.30;;;2.80;;
85279;SDS011;75687;40.670;21.838;2024-01-30T07:46:34;4.60;;;3.40;;
85279;SDS011;75687;40.670;21.838;2024-01-30T07:49:05;5.00;;;3.20;;
85279;SDS011;75687;40.670;21.838;2024-01-30T07:51:36;4.80;;;3.20;;
85279;SDS011;75687;40.670;21.838;2024-01-30T07:54:07;4.50;;;2.70;;
85279;SDS011;75687;40.670;21.838;2024-01-30T07:56:38;4.60;;;3.30;;
85279;SDS011;75687;40.670;21.838;2024-01-30T07:59:10;7.70;;;4.80;;
85279;SDS011;75687;40.670;21.838;2024-01-30T08:01:40;14.90;;;8.00;;
85279;SDS011;75687;40.670;21.838;2024-01-30T08:04:11;8.50;;;5.70;;
85279;SDS011;75687;40.670;21.838;2024-01-30T08:06:42;9.80;;;6.90;;
85279;SDS011;75687;40.670;21.838;2024-01-30T08:09:13;7.50;;;5.10;;
85279;SDS011;75687;40.670;21.838;2024-01-30T08:11:43;8.00;;;4.90;;
85279;SDS011;75687;40.670;21.838;2024-01-30T08:14:14;6.50;;;4.00;;
85279;SDS011;75687;40.670;21.838;2024-01-30T08:16:44;8.30;;;5.00;;
85279;SDS011;75687;40.670;21.838;2024-01-30T08:19:15;8.40;;;6.70;;
85279;SDS011;75687;40.670;21.838;2024-01-30T08:21:45;4.80;;;3.20;;
85279;SDS011;75687;40.670;21.838;2024-01-30T08:24:16;6.40;;;3.80;;
85279;SDS011;75687;40.670;21.838;2024-01-30T08:26:48;4.90;;;3.40;;
85279;SDS011;75687;40.670;21.838;2024-01-30T08:29:24;5.10;;;3.60;;
85279;SDS011;75687;40.670;21.838;2024-01-30T08:31:54;5.40;;;3.50;;
85279;SDS011;75687;40.670;21.838;2024-01-30T08:34:25;3.70;;;2.60;;
85279;SDS011;75687;40.670;21.838;2024-01-30T08:36:56;5.80;;;2.90;;
85279;SDS011;75687;40.670;21.838;2024-01-30T08:39:26;3.80;;;3.10;;
85279;SDS011;75687;40.670;21.838;2024-01-30T08:41:57;3.80;;;2.50;;
85279;SDS011;75687;40.670;21.838;2024-01-30T08:44:28;3.60;;;2.50;;
85279;SDS011;75687;40.670;21.838;2024-01-30T08:46:58;3.50;;;2.40;;
85279;SDS011;75687;40.670;21.838;2024-01-30T08:49:28;5.00;;;2.80;;
85279;SDS011;75687;40.670;21.838;2024-01-30T08:51:59;4.00;;;2.70;;
85279;SDS011;75687;40.670;21.838;2024-01-30T08:54:29;5.70;;;3.30;;
85279;SDS011;75687;40.670;21.838;2024-01-30T08:57:02;5.60;;;3.40;;
85279;SDS011;75687;40.670;21.838;2024-01-30T08:59:33;3.20;;;2.30;;
85279;SDS011;75687;40.670;21.838;2024-01-30T09:02:30;3.80;;;3.10;;
85279;SDS011;75687;40.670;21.838;2024-01-30T09:05:04;3.10;;;2.30;;
85279;SDS011;75687;40.670;21.838;2024-01-30T09:07:37;4.00;;;2.90;;
85279;SDS011;75687;40.670;21.838;2024-01-30T09:10:09;4.00;;;3.30;;
85279;SDS011;75687;40.670;21.838;2024-01-30T09:12:41;4.60;;;2.70;;
85279;SDS011;75687;40.670;21.838;2024-01-30T09:15:12;3.70;;;2.50;;
85279;SDS011;75687;40.670;21.838;2024-01-30T09:17:43;4.30;;;2.40;;
85279;SDS011;75687;40.670;21.838;2024-01-30T09:20:14;4.50;;;2.10;;
85279;SDS011;75687;40.670;21.838;2024-01-30T09:22:44;5.80;;;2.80;;
85279;SDS011;75687;40.670;21.838;2024-01-30T09:25:15;5.90;;;3.40;;
85279;SDS011;75687;40.670;21.838;2024-01-30T09:27:46;2.90;;;1.90;;
85279;SDS011;75687;40.670;21.838;2024-01-30T09:30:18;2.60;;;2.00;;
85279;SDS011;75687;40.670;21.838;2024-01-30T09:32:49;3.00;;;2.00;;
85279;SDS011;75687;40.670;21.838;2024-01-30T09:35:19;2.90;;;2.10;;
85279;SDS011;75687;40.670;21.838;2024-01-30T09:37:49;4.20;;;2.70;;
85279;SDS011;75687;40.670;21.838;2024-01-30T09:40:20;5.90;;;3.50;;
85279;SDS011;75687;40.670;21.838;2024-01-30T09:42:52;4.10;;;2.60;;
85279;SDS011;75687;40.670;21.838;2024-01-30T09:45:24;3.40;;;2.50;;
85279;SDS011;75687;40.670;21.838;2024-01-30T09:47:55;3.40;;;2.10;;
85279;SDS011;75687;40.670;21.838;2024-01-30T09:50:27;4.30;;;2.80;;
85279;SDS011;75687;40.670;21.838;2024-01-30T09:52:58;3.10;;;2.10;;
85279;SDS011;75687;40.670;21.838;2024-01-30T09:55:29;3.60;;;2.20;;
85279;SDS011;75687;40.670;21.838;2024-01-30T09:57:59;4.00;;;3.00;;
85279;SDS011;75687;40.670;21.838;2024-01-30T10:00:30;3.50;;;2.50;;
85279;SDS011;75687;40.670;21.838;2024-01-30T10:03:00;4.40;;;2.70;;
85279;SDS011;75687;40.670;21.838;2024-01-30T10:05:32;3.00;;;2.20;;
85279;SDS011;75687;40.670;21.838;2024-01-30T10:08:05;4.30;;;2.10;;
85279;SDS011;75687;40.670;21.838;2024-01-30T10:10:36;5.00;;;1.80;;
85279;SDS011;75687;40.670;21.838;2024-01-30T10:13:07;3.20;;;1.60;;
85279;SDS011;75687;40.670;21.838;2024-01-30T10:15:38;3.80;;;2.10;;
85279;SDS011;75687;40.670;21.838;2024-01-30T10:18:08;3.80;;;2.20;;
85279;SDS011;75687;40.670;21.838;2024-01-30T10:20:39;3.40;;;2.10;;
85279;SDS011;75687;40.670;21.838;2024-01-30T10:23:09;2.70;;;1.70;;
85279;SDS011;75687;40.670;21.838;2024-01-30T10:25:40;3.80;;;2.60;;
85279;SDS011;75687;40.670;21.838;2024-01-30T10:28:11;3.20;;;1.90;;
85279;SDS011;75687;40.670;21.838;2024-01-30T10:30:42;3.60;;;2.50;;
85279;SDS011;75687;40.670;21.838;2024-01-30T10:33:12;2.90;;;2.00;;
85279;SDS011;75687;40.670;21.838;2024-01-30T10:35:43;2.50;;;1.80;;
85279;SDS011;75687;40.670;21.838;2024-01-30T10:38:13;5.70;;;3.40;;
85279;SDS011;75687;40.670;21.838;2024-01-30T10:40:46;3.90;;;2.40;;
85279;SDS011;75687;40.670;21.838;2024-01-30T10:43:24;3.80;;;2.40;;
85279;SDS011;75687;40.670;21.838;2024-01-30T10:46:02;3.90;;;3.00;;
85279;SDS011;75687;40.670;21.838;2024-01-30T10:48:36;2.20;;;1.90;;
85279;SDS011;75687;40.670;21.838;2024-01-30T10:51:11;4.90;;;2.60;;
85279;SDS011;75687;40.670;21.838;2024-01-30T10:53:46;3.00;;;1.80;;
85279;SDS011;75687;40.670;21.838;2024-01-30T10:56:16;5.50;;;2.40;;
85279;SDS011;75687;40.670;21.838;2024-01-30T10:58:48;4.80;;;3.10;;
85279;SDS011;75687;40.670;21.838;2024-01-30T11:01:20;4.20;;;3.00;;
85279;SDS011;75687;40.670;21.838;2024-01-30T11:03:51;3.90;;;2.90;;
85279;SDS011;75687;40.670;21.838;2024-01-30T11:06:22;3.80;;;2.20;;
85279;SDS011;75687;40.670;21.838;2024-01-30T11:09:03;4.60;;;2.50;;
85279;SDS011;75687;40.670;21.838;2024-01-30T11:11:48;4.00;;;3.00;;
85279;SDS011;75687;40.670;21.838;2024-01-30T11:14:24;4.40;;;2.90;;
85279;SDS011;75687;40.670;21.838;2024-01-30T11:16:56;8.00;;;3.50;;
85279;SDS011;75687;40.670;21.838;2024-01-30T11:19:30;4.90;;;3.00;;
85279;SDS011;75687;40.670;21.838;2024-01-30T11:22:01;4.00;;;2.50;;
85279;SDS011;75687;40.670;21.838;2024-01-30T11:24:38;3.70;;;2.30;;
85279;SDS011;75687;40.670;21.838;2024-01-30T11:27:10;5.60;;;2.60;;
85279;SDS011;75687;40.670;21.838;2024-01-30T11:29:40;4.60;;;3.00;;
85279;SDS011;75687;40.670;21.838;2024-01-30T11:32:11;4.40;;;2.90;;
85279;SDS011;75687;40.670;21.838;2024-01-30T11:34:52;5.10;;;2.70;;
85279;SDS011;75687;40.670;21.838;2024-01-30T11:37:23;5.00;;;2.90;;
85279;SDS011;75687;40.670;21.838;2024-01-30T11:39:55;3.20;;;2.00;;
85279;SDS011;75687;40.670;21.838;2024-01-30T11:42:26;5.00;;;3.00;;
85279;SDS011;75687;40.670;21.838;2024-01-30T11:44:57;3.00;;;1.90;;
85279;SDS011;75687;40.670;21.838;2024-01-30T11:47:30;3.40;;;2.40;;
85279;SDS011;75687;40.670;21.838;2024-01-30T11:50:03;2.30;;;1.70;;
85279;SDS011;75687;40.670;21.838;2024-01-30T11:52:34;3.00;;;2.10;;
85279;SDS011;75687;40.670;21.838;2024-01-30T11:55:25;3.00;;;2.10;;
85279;SDS011;75687;40.670;21.838;2024-01-30T11:57:58;6.20;;;3.10;;
85279;SDS011;75687;40.670;21.838;2024-01-30T12:00:29;5.10;;;2.70;;
85279;SDS011;75687;40.670;21.838;2024-01-30T12:03:01;3.20;;;1.80;;
85279;SDS011;75687;40.670;21.838;2024-01-30T12:05:33;4.10;;;2.20;;
85279;SDS011;75687;40.670;21.838;2024-01-30T12:08:06;3.00;;;2.00;;
85279;SDS011;75687;40.670;21.838;2024-01-30T12:10:37;2.70;;;2.00;;
85279;SDS011;75687;40.670;21.838;2024-01-30T12:13:07;3.00;;;2.10;;
85279;SDS011;75687;40.670;21.838;2024-01-30T12:15:37;3.00;;;2.40;;
85279;SDS011;75687;40.670;21.838;2024-01-30T12:18:09;4.80;;;2.20;;
85279;SDS011;75687;40.670;21.838;2024-01-30T12:20:39;2.30;;;1.60;;
85279;SDS011;75687;40.670;21.838;2024-01-30T12:23:11;2.90;;;2.20;;
85279;SDS011;75687;40.670;21.838;2024-01-30T12:25:41;3.00;;;1.90;;
85279;SDS011;75687;40.670;21.838;2024-01-30T12:28:12;3.80;;;2.50;;
85279;SDS011;75687;40.670;21.838;2024-01-30T12:30:43;3.30;;;2.20;;
85279;SDS011;75687;40.670;21.838;2024-01-30T12:33:16;2.30;;;1.90;;
85279;SDS011;75687;40.670;21.838;2024-01-30T12:35:47;2.50;;;1.70;;
85279;SDS011;75687;40.670;21.838;2024-01-30T12:38:23;3.00;;;1.80;;
85279;SDS011;75687;40.670;21.838;2024-01-30T12:40:55;4.20;;;2.70;;
85279;SDS011;75687;40.670;21.838;2024-01-30T12:43:26;2.50;;;2.20;;
85279;SDS011;75687;40.670;21.838;2024-01-30T12:46:02;2.70;;;1.80;;
85279;SDS011;75687;40.670;21.838;2024-01-30T12:48:34;3.40;;;2.30;;
85279;SDS011;75687;40.670;21.838;2024-01-30T12:51:04;4.00;;;2.30;;
85279;SDS011;75687;40.670;21.838;2024-01-30T12:53:35;4.00;;;3.00;;
85279;SDS011;75687;40.670;21.838;2024-01-30T12:56:06;3.00;;;1.80;;
85279;SDS011;75687;40.670;21.838;2024-01-30T12:58:37;4.10;;;2.40;;
85279;SDS011;75687;40.670;21.838;2024-01-30T13:01:07;3.70;;;2.10;;
85279;SDS011;75687;40.670;21.838;2024-01-30T13:03:37;3.50;;;2.50;;
85279;SDS011;75687;40.670;21.838;2024-01-30T13:06:08;4.40;;;2.30;;
85279;SDS011;75687;40.670;21.838;2024-01-30T13:08:39;3.30;;;2.70;;
85279;SDS011;75687;40.670;21.838;2024-01-30T13:11:10;6.10;;;3.20;;
85279;SDS011;75687;40.670;21.838;2024-01-30T13:13:45;4.00;;;2.90;;
85279;SDS011;75687;40.670;21.838;2024-01-30T13:16:16;3.60;;;2.50;;
85279;SDS011;75687;40.670;21.838;2024-01-30T13:18:46;5.90;;;3.00;;
85279;SDS011;75687;40.670;21.838;2024-01-30T13:21:17;3.10;;;2.60;;
85279;SDS011;75687;40.670;21.838;2024-01-30T13:23:47;4.30;;;2.50;;
85279;SDS011;75687;40.670;21.838;2024-01-30T13:26:21;3.90;;;2.40;;
85279;SDS011;75687;40.670;21.838;2024-01-30T13:28:52;3.70;;;2.50;;
85279;SDS011;75687;40.670;21.838;2024-01-30T13:31:22;4.00;;;2.90;;
85279;SDS011;75687;40.670;21.838;2024-01-30T13:33:54;3.10;;;2.10;;
85279;SDS011;75687;40.670;21.838;2024-01-30T13:36:24;3.50;;;2.30;;
85279;SDS011;75687;40.670;21.838;2024-01-30T13:38:55;3.90;;;2.20;;
85279;SDS011;75687;40.670;21.838;2024-01-30T13:41:26;5.20;;;1.90;;
85279;SDS011;75687;40.670;21.838;2024-01-30T13:43:58;2.90;;;2.00;;
85279;SDS011;75687;40.670;21.838;2024-01-30T13:46:28;3.90;;;2.60;;
85279;SDS011;75687;40.670;21.838;2024-01-30T13:48:59;4.00;;;2.20;;
85279;SDS011;75687;40.670;21.838;2024-01-30T13:53:58;3.10;;;2.20;;
85279;SDS011;75687;40.670;21.838;2024-01-30T13:56:29;3.50;;;2.00;;
85279;SDS011;75687;40.670;21.838;2024-01-30T13:58:59;4.00;;;2.60;;
85279;SDS011;75687;40.670;21.838;2024-01-30T14:01:33;2.70;;;1.90;;
85279;SDS011;75687;40.670;21.838;2024-01-30T14:04:03;2.80;;;1.70;;
85279;SDS011;75687;40.670;21.838;2024-01-30T14:06:37;2.90;;;2.00;;
85279;SDS011;75687;40.670;21.838;2024-01-30T14:09:15;3.20;;;1.80;;
85279;SDS011;75687;40.670;21.838;2024-01-30T14:11:46;2.40;;;1.80;;
85279;SDS011;75687;40.670;21.838;2024-01-30T14:14:16;3.50;;;2.20;;
85279;SDS011;75687;40.670;21.838;2024-01-30T14:16:47;3.10;;;2.20;;
85279;SDS011;75687;40.670;21.838;2024-01-30T14:19:18;3.00;;;2.10;;
85279;SDS011;75687;40.670;21.838;2024-01-30T14:21:49;2.40;;;1.70;;
85279;SDS011;75687;40.670;21.838;2024-01-30T14:26:48;3.00;;;2.00;;
85279;SDS011;75687;40.670;21.838;2024-01-30T14:29:19;3.50;;;1.60;;
85279;SDS011;75687;40.670;21.838;2024-01-30T14:31:49;5.90;;;2.30;;
85279;SDS011;75687;40.670;21.838;2024-01-30T14:34:20;3.10;;;2.00;;
85279;SDS011;75687;40.670;21.838;2024-01-30T14:36:50;3.40;;;2.60;;
85279;SDS011;75687;40.670;21.838;2024-01-30T14:39:21;3.80;;;2.30;;
85279;SDS011;75687;40.670;21.838;2024-01-30T14:41:52;4.60;;;1.70;;
85279;SDS011;75687;40.670;21.838;2024-01-30T14:44:22;3.20;;;1.90;;
85279;SDS011;75687;40.670;21.838;2024-01-30T14:46:52;5.50;;;2.10;;
85279;SDS011;75687;40.670;21.838;2024-01-30T14:49:23;4.50;;;2.50;;
85279;SDS011;75687;40.670;21.838;2024-01-30T14:51:53;2.80;;;1.90;;
85279;SDS011;75687;40.670;21.838;2024-01-30T14:54:24;3.80;;;2.70;;
85279;SDS011;75687;40.670;21.838;2024-01-30T14:56:54;2.90;;;2.10;;
85279;SDS011;75687;40.670;21.838;2024-01-30T14:59:25;4.30;;;2.10;;
85279;SDS011;75687;40.670;21.838;2024-01-30T15:01:55;2.70;;;1.60;;
85279;SDS011;75687;40.670;21.838;2024-01-30T15:04:26;2.80;;;1.80;;
85279;SDS011;75687;40.670;21.838;2024-01-30T15:06:56;2.60;;;1.60;;
85279;SDS011;75687;40.670;21.838;2024-01-30T15:09:27;3.40;;;2.10;;
85279;SDS011;75687;40.670;21.838;2024-01-30T15:11:58;3.30;;;2.40;;
85279;SDS011;75687;40.670;21.838;2024-01-30T15:14:29;2.50;;;1.70;;
85279;SDS011;75687;40.670;21.838;2024-01-30T15:16:59;3.40;;;1.90;;
85279;SDS011;75687;40.670;21.838;2024-01-30T15:19:30;3.30;;;2.20;;
85279;SDS011;75687;40.670;21.838;2024-01-30T15:22:00;2.10;;;1.60;;
85279;SDS011;75687;40.670;21.838;2024-01-30T15:24:31;2.60;;;2.20;;
85279;SDS011;75687;40.670;21.838;2024-01-30T15:27:22;2.40;;;1.80;;
85279;SDS011;75687;40.670;21.838;2024-01-30T15:29:55;3.40;;;2.10;;
85279;SDS011;75687;40.670;21.838;2024-01-30T15:32:26;2.30;;;1.50;;
85279;SDS011;75687;40.670;21.838;2024-01-30T15:34:57;3.30;;;1.80;;
85279;SDS011;75687;40.670;21.838;2024-01-30T15:37:32;2.60;;;1.70;;
85279;SDS011;75687;40.670;21.838;2024-01-30T15:40:03;3.20;;;2.00;;
85279;SDS011;75687;40.670;21.838;2024-01-30T15:42:36;3.30;;;1.90;;
85279;SDS011;75687;40.670;21.838;2024-01-30T15:45:07;4.30;;;2.00;;
85279;SDS011;75687;40.670;21.838;2024-01-30T15:47:37;2.80;;;1.80;;
85279;SDS011;75687;40.670;21.838;2024-01-30T15:50:09;3.30;;;1.80;;
85279;SDS011;75687;40.670;21.838;2024-01-30T15:52:41;2.50;;;1.60;;
85279;SDS011;75687;40.670;21.838;2024-01-30T15:55:11;4.70;;;1.50;;
85279;SDS011;75687;40.670;21.838;2024-01-30T15:57:42;3.00;;;1.70;;
85279;SDS011;75687;40.670;21.838;2024-01-30T16:02:43;1.50;;;1.40;;
85279;SDS011;75687;40.670;21.838;2024-01-30T16:05:14;2.70;;;1.80;;
85279;SDS011;75687;40.670;21.838;2024-01-30T16:07:44;2.10;;;1.20;;
85279;SDS011;75687;40.670;21.838;2024-01-30T16:10:15;4.20;;;1.70;;
85279;SDS011;75687;40.670;21.838;2024-01-30T16:12:45;2.40;;;1.90;;
85279;SDS011;75687;40.670;21.838;2024-01-30T16:15:16;3.60;;;2.00;;
85279;SDS011;75687;40.670;21.838;2024-01-30T16:17:47;2.60;;;1.70;;
85279;SDS011;75687;40.670;21.838;2024-01-30T16:20:17;2.70;;;1.70;;